Quitman, MS (39355)

2:39 PM CST on March 02, 2015 (GMT -0600)
Clarke Co. Airport (23M) | Change Station
CLOSE
Current Station
Personal Weather Station
Location: Quitman, MS
Elevation: 320 ft
Nearby Weather Stations

Elev 320 ft 32.08 °N, 88.74 °W | Updated 4 minutes ago

Overcast
Overcast
59.6 °F
Feels Like 59.6 °F
N
3.0
Wind Variable Wind from NE
Gusts 4.0 mph

Today
High -- | Low -- °F
--% Chance of Precip.
Yesterday
High -- | Low -- °F
Precip. -- in
6:21 AM 5:53 PM
Waxing Gibbous, 93% visible
Pressure 30.27 in
Visibility 10.0 miles
Clouds Overcast 700 ft
Dew Point 58 °F
Humidity 95%
Rainfall 0.00 in
Snow Depth Not available.
UV 2 out of 12
Pollen 3.40 out of 12
Air Quality Not available.
Flu Activity Not available.
METAR KMEI 021958Z 08004KT 10SM OVC007 15/13 A3027 RMK AO2 CIG 006V011 SLP248 T01500128

More Conditions Fewer Conditions

Pressure 30.27 in
Visibility 10.0 miles
Clouds Overcast 700 ft
Dew Point 58 °F
Humidity 95%
Rainfall 0.00 in
Snow Depth Not available.
UV 2 out of 12
Pollen 3.40 out of 12
Air Quality Not available.
Flu Activity Not available.
METAR KMEI 021958Z 08004KT 10SM OVC007 15/13 A3027 RMK AO2 CIG 006V011 SLP248 T01500128

More Conditions Fewer Conditions

10-Day Weather Forecast

Almanac

Astronomy

Mar. 02, 2015 Rise Set
Actual Time
Civil Twilight
Nautical Twilight
Astronomical Twilight
Moon
Length of Visible Light
Length of Day
Tomorrow will be .
, % of the Moon is Illuminated

Today's Extremes

State Highs State Lows

Community

WunderPhotos

Upload Photos

1,801,939 photos uploaded!

WunderBlogs® & News

Nearby

Air Quality

  Air Quality AQ Index Pollutant
Not available.

Snow Depth

Station Depth Elevation

Earthquake Activity

City Distance Mag. Time & Date
Minimum magnitude displayed is 2.5.

Coastal Water Temperatures

Place Temperature

Nearby Weather Stations